Time;durP1;ratioP1;P1;durP2;ratioP2;P2;SDS_P1;SDS_P2;PMS_P1;PMS_P2;Temp;Humidity;BMP_temperature;BMP_pressure;BME280_temperature;BME280_humidity;BME280_pressure;Samples;Min_cycle;Max_cycle;Signal;HPM_P1;HPM_P2
2021/06/27 00:01:39;;;;;;;17.48;11.20;;;;;;;19.92;91.23;101299.56;4946922;28;20570;-71
2021/06/27 00:04:04;;;;;;;13.30;9.95;;;;;;;19.84;91.46;101300.81;4925933;29;20489;-71
2021/06/27 00:06:30;;;;;;;15.50;10.90;;;;;;;19.84;91.18;101293.34;4933677;28;20043;-71
2021/06/27 00:08:55;;;;;;;15.63;10.98;;;;;;;19.78;91.74;101298.47;4934743;29;20082;-71
2021/06/27 00:11:24;;;;;;;14.40;11.00;;;;;;;19.80;91.43;101293.38;4946700;28;20043;-71
2021/06/27 00:13:51;;;;;;;14.07;10.68;;;;;;;19.79;91.33;101294.59;4942227;28;20513;-71
2021/06/27 00:16:18;;;;;;;18.45;10.57;;;;;;;19.73;91.26;101296.19;4946287;28;20563;-71
2021/06/27 00:18:43;;;;;;;16.83;11.18;;;;;;;19.68;91.57;101299.34;4946952;28;20043;-71
2021/06/27 00:21:14;;;;;;;16.75;11.57;;;;;;;19.61;91.62;101295.84;4920846;29;20109;-71
2021/06/27 00:23:43;;;;;;;18.45;11.70;;;;;;;19.62;91.54;101295.47;4927804;28;20458;-71
2021/06/27 00:26:11;;;;;;;15.18;11.52;;;;;;;19.55;91.65;101298.25;4946376;28;20039;-71
2021/06/27 00:28:36;;;;;;;17.48;11.68;;;;;;;19.51;92.04;101299.47;4947339;28;20047;-71
2021/06/27 00:31:03;;;;;;;17.17;11.75;;;;;;;19.40;92.18;101299.50;4943793;28;20035;-71
2021/06/27 00:33:29;;;;;;;18.13;11.57;;;;;;;19.40;92.26;101296.78;4929536;29;20031;-71
2021/06/27 00:35:54;;;;;;;17.05;11.65;;;;;;;19.44;92.20;101292.06;4942960;28;20567;-71
2021/06/27 00:38:20;;;;;;;17.67;11.38;;;;;;;19.34;92.71;101295.63;4952091;28;20035;-71
2021/06/27 00:40:46;;;;;;;17.05;11.52;;;;;;;19.34;92.69;101303.03;4943464;28;20083;-71
2021/06/27 00:43:12;;;;;;;17.27;11.63;;;;;;;19.29;92.60;101301.50;4945948;28;20039;-71
2021/06/27 00:45:39;;;;;;;18.80;11.57;;;;;;;19.29;92.55;101306.94;4944321;28;20027;-71
2021/06/27 00:48:06;;;;;;;17.98;12.13;;;;;;;19.24;92.48;101301.13;4927269;28;20063;-71
2021/06/27 00:50:33;;;;;;;18.23;12.85;;;;;;;19.24;92.81;101304.63;4927135;28;20043;-71
2021/06/27 00:52:59;;;;;;;17.35;11.82;;;;;;;19.19;93.65;101298.78;4946673;28;20035;-71
2021/06/27 00:55:24;;;;;;;16.00;11.43;;;;;;;19.07;94.04;101299.22;4924589;29;20402;-71
2021/06/27 00:57:53;;;;;;;18.40;11.65;;;;;;;19.06;93.96;101303.94;4946443;28;20027;-71
2021/06/27 01:00:26;;;;;;;16.00;11.32;;;;;;;19.00;93.78;101300.06;4939424;28;20532;-72
2021/06/27 01:02:52;;;;;;;16.73;12.10;;;;;;;18.97;93.79;101289.91;4945018;28;20046;-71
2021/06/27 01:05:21;;;;;;;16.83;11.15;;;;;;;19.02;93.77;101297.72;4945653;28;20090;-71
2021/06/27 01:07:47;;;;;;;18.00;11.90;;;;;;;18.92;94.16;101293.84;4959584;28;20167;-71
2021/06/27 01:10:13;;;;;;;18.13;12.38;;;;;;;18.95;93.93;101294.97;4947564;28;20067;-71
2021/06/27 01:12:39;;;;;;;19.02;12.48;;;;;;;18.93;93.78;101292.66;4952177;28;20092;-71
2021/06/27 01:15:06;;;;;;;18.70;12.57;;;;;;;18.87;94.23;101285.28;4949351;28;20035;-71
2021/06/27 01:17:32;;;;;;;17.45;12.05;;;;;;;18.83;94.56;101296.19;4947606;28;20023;-71
2021/06/27 01:19:57;;;;;;;22.23;12.02;;;;;;;18.83;94.48;101287.25;4949200;28;20615;-71
2021/06/27 01:22:26;;;;;;;17.38;12.25;;;;;;;18.81;94.81;101290.34;4950874;28;20484;-71
2021/06/27 01:24:53;;;;;;;16.48;11.82;;;;;;;18.75;94.76;101293.91;4945082;28;20142;-71
2021/06/27 01:27:19;;;;;;;17.30;12.13;;;;;;;18.70;95.23;101297.78;4950898;28;20430;-71
2021/06/27 01:29:44;;;;;;;17.55;12.07;;;;;;;18.73;94.80;101298.97;4949477;28;20035;-71
2021/06/27 01:32:12;;;;;;;18.17;11.00;;;;;;;18.70;94.86;101292.34;4933319;29;20046;-71
2021/06/27 01:34:39;;;;;;;17.75;12.32;;;;;;;18.61;94.85;101296.66;4945540;28;20048;-71
2021/06/27 01:37:06;;;;;;;17.30;11.93;;;;;;;18.59;95.63;101290.81;4952323;28;20041;-71
2021/06/27 01:39:34;;;;;;;19.33;11.70;;;;;;;18.59;95.56;101296.25;4953893;28;20043;-71
2021/06/27 01:42:00;;;;;;;18.35;12.40;;;;;;;18.60;95.21;101297.84;4949563;28;20030;-71
2021/06/27 01:44:26;;;;;;;17.38;12.15;;;;;;;18.59;95.17;101294.31;4945951;28;20514;-71
2021/06/27 01:46:55;;;;;;;21.30;12.15;;;;;;;18.59;95.01;101291.59;4949210;28;20114;-71
2021/06/27 01:49:20;;;;;;;20.00;13.13;;;;;;;18.52;95.54;101290.81;4949725;28;20119;-71
2021/06/27 01:51:45;;;;;;;18.88;11.68;;;;;;;18.56;95.51;101297.06;4949752;28;20117;-71
2021/06/27 01:54:11;;;;;;;17.30;11.77;;;;;;;18.45;95.83;101299.78;4945167;28;20051;-71
2021/06/27 01:56:37;;;;;;;14.98;11.13;;;;;;;18.41;96.09;101293.53;4947974;28;20030;-71
2021/06/27 01:59:03;;;;;;;15.73;10.85;;;;;;;18.43;95.55;101291.22;4945696;28;20757;-71
2021/06/27 02:01:34;;;;;;;15.05;10.60;;;;;;;18.39;96.04;101295.13;4949410;28;20043;-71
2021/06/27 02:04:01;;;;;;;14.48;10.25;;;;;;;18.42;95.87;101297.03;4928278;28;20035;-71
2021/06/27 02:06:28;;;;;;;16.88;10.65;;;;;;;18.37;95.99;101289.28;4950888;28;20030;-71
2021/06/27 02:08:58;;;;;;;14.32;10.15;;;;;;;18.39;95.96;101292.38;4950969;28;20038;-71
2021/06/27 02:11:26;;;;;;;14.73;10.55;;;;;;;18.30;96.11;101291.97;4940094;28;20086;-71
2021/06/27 02:13:53;;;;;;;17.38;11.23;;;;;;;18.27;95.87;101290.84;4942405;28;20098;-71
2021/06/27 02:16:19;;;;;;;15.40;10.60;;;;;;;18.15;96.91;101283.06;4947653;28;20035;-71
2021/06/27 02:18:49;;;;;;;16.13;10.52;;;;;;;18.14;96.53;101280.72;4935112;28;20671;-71
2021/06/27 02:21:31;;;;;;;15.95;11.15;;;;;;;18.19;96.31;101269.41;4944743;28;20134;-71
2021/06/27 02:23:58;;;;;;;17.58;11.85;;;;;;;18.24;96.27;101274.47;4948509;28;20097;-71
2021/06/27 02:26:26;;;;;;;17.83;11.93;;;;;;;18.21;97.01;101267.06;4941990;28;20086;-71
2021/06/27 02:28:52;;;;;;;17.05;12.02;;;;;;;18.24;96.57;101269.78;4948802;28;20094;-71
2021/06/27 02:31:18;;;;;;;17.70;11.35;;;;;;;18.17;96.79;101271.75;4947303;28;20033;-71
2021/06/27 02:33:46;;;;;;;18.35;12.52;;;;;;;18.07;97.61;101269.78;4938502;28;20036;-71
2021/06/27 02:36:12;;;;;;;17.55;11.43;;;;;;;18.09;96.86;101265.53;4943318;28;20529;-71
2021/06/27 02:38:38;;;;;;;16.23;11.30;;;;;;;18.12;97.25;101269.44;4944863;28;20035;-71
2021/06/27 02:41:06;;;;;;;16.75;10.93;;;;;;;18.10;97.24;101264.34;4949496;28;20035;-71
2021/06/27 02:43:31;;;;;;;16.85;10.40;;;;;;;18.09;96.76;101267.47;4942205;28;20114;-71
2021/06/27 02:45:57;;;;;;;15.68;11.43;;;;;;;18.04;97.03;101260.44;4948308;28;20110;-71
2021/06/27 02:48:23;;;;;;;16.88;10.50;;;;;;;18.04;96.38;101266.69;4945152;28;20030;-71
2021/06/27 02:50:48;;;;;;;17.20;10.82;;;;;;;17.91;96.79;101268.25;4948197;28;20471;-71
2021/06/27 02:53:14;;;;;;;15.13;10.93;;;;;;;17.85;96.94;101258.91;4948599;28;20051;-71
2021/06/27 02:55:39;;;;;;;19.20;9.98;;;;;;;17.86;97.47;101260.47;4946498;28;20035;-71
2021/06/27 02:58:05;;;;;;;15.43;10.90;;;;;;;17.94;96.66;101275.63;4944732;28;20110;-71
2021/06/27 03:00:32;;;;;;;15.77;11.52;;;;;;;17.91;97.36;101273.69;4948389;28;20031;-71
2021/06/27 03:02:58;;;;;;;18.63;11.02;;;;;;;17.93;97.42;101265.91;4931016;28;20031;-71
2021/06/27 03:05:24;;;;;;;14.60;10.52;;;;;;;17.89;98.23;101261.63;4943454;28;20039;-71
2021/06/27 03:07:49;;;;;;;14.90;10.68;;;;;;;17.90;98.03;101269.41;4947975;28;20493;-71
2021/06/27 03:10:17;;;;;;;15.70;10.55;;;;;;;18.00;97.99;101270.59;4945153;28;20090;-71
2021/06/27 03:12:45;;;;;;;16.40;11.05;;;;;;;17.97;97.99;101269.41;4952230;28;20733;-71
2021/06/27 03:15:13;;;;;;;17.50;11.43;;;;;;;18.02;97.91;101265.53;4947811;28;20031;-71
2021/06/27 03:17:39;;;;;;;15.10;10.45;;;;;;;18.03;98.38;101267.88;4944375;28;20030;-71
2021/06/27 03:20:08;;;;;;;18.13;11.95;;;;;;;18.04;98.36;101269.41;4948784;28;20094;-71
2021/06/27 03:22:33;;;;;;;15.85;11.27;;;;;;;18.11;98.42;101270.56;4947308;28;20062;-71
2021/06/27 03:24:59;;;;;;;16.83;11.90;;;;;;;18.05;98.99;101264.75;4946452;28;20073;-71
2021/06/27 03:27:25;;;;;;;19.40;12.32;;;;;;;18.20;97.79;101269.00;4943921;28;20062;-71
2021/06/27 03:29:51;;;;;;;16.02;11.75;;;;;;;18.26;97.54;101267.44;4946792;28;20106;-71
2021/06/27 03:32:17;;;;;;;20.55;12.20;;;;;;;18.25;97.89;101259.66;4943637;28;20137;-71
2021/06/27 03:34:43;;;;;;;17.05;11.82;;;;;;;18.29;98.18;101255.75;4947091;28;20545;-71
2021/06/27 03:37:10;;;;;;;17.85;11.68;;;;;;;18.33;97.85;101253.78;4946535;28;20778;-71
2021/06/27 03:39:36;;;;;;;17.40;12.20;;;;;;;18.35;97.27;101256.16;4947499;28;20047;-71
2021/06/27 03:42:03;;;;;;;18.50;11.48;;;;;;;18.33;98.26;101261.97;4943650;28;20682;-71
2021/06/27 03:44:29;;;;;;;16.55;11.55;;;;;;;18.35;98.97;101259.63;4947585;28;20560;-71
2021/06/27 03:46:55;;;;;;;17.65;11.45;;;;;;;18.37;100.00;101253.81;4942773;28;20038;-71
2021/06/27 03:49:21;;;;;;;18.17;12.35;;;;;;;18.29;100.00;101257.72;4932971;28;20454;-72
2021/06/27 03:51:47;;;;;;;15.18;11.07;;;;;;;18.34;100.00;101257.31;4945677;28;20023;-71
2021/06/27 03:54:14;;;;;;;15.73;11.40;;;;;;;18.36;100.00;101261.22;4944597;28;20043;-71
2021/06/27 03:56:40;;;;;;;18.48;11.60;;;;;;;18.39;100.00;101257.69;4929475;29;20039;-72
2021/06/27 03:59:06;;;;;;;19.23;12.35;;;;;;;18.48;100.00;101257.31;4946581;28;20154;-71
2021/06/27 04:01:32;;;;;;;16.45;12.23;;;;;;;18.58;100.00;101257.28;4947267;28;20488;-71
2021/06/27 04:03:57;;;;;;;17.70;11.80;;;;;;;18.60;98.54;101265.84;4926548;29;20058;-71
2021/06/27 04:06:23;;;;;;;16.75;10.90;;;;;;;18.58;99.54;101265.47;4946442;28;20118;-71
2021/06/27 04:08:48;;;;;;;17.60;12.32;;;;;;;18.63;100.00;101272.47;4946525;28;20047;-71
2021/06/27 04:11:14;;;;;;;17.35;11.30;;;;;;;18.67;100.00;101265.84;4926739;28;20074;-71
2021/06/27 04:13:39;;;;;;;20.30;12.20;;;;;;;18.73;99.92;101267.00;4946199;28;20046;-71
2021/06/27 04:16:05;;;;;;;16.98;11.85;;;;;;;18.80;98.06;101266.19;4942608;28;20039;-71
2021/06/27 04:18:34;;;;;;;17.10;11.95;;;;;;;18.76;98.19;101258.00;4926053;29;20027;-71
2021/06/27 04:21:00;;;;;;;18.65;12.35;;;;;;;18.78;97.53;101266.59;4946228;28;20035;-71
2021/06/27 04:23:29;;;;;;;17.02;11.48;;;;;;;18.77;99.01;101266.97;4945795;28;20042;-71
2021/06/27 04:25:55;;;;;;;17.83;12.00;;;;;;;18.80;100.00;101266.97;4922180;29;20568;-71
2021/06/27 04:28:20;;;;;;;18.75;12.85;;;;;;;18.87;100.00;101266.94;4945164;28;20027;-71
2021/06/27 04:30:46;;;;;;;16.77;11.65;;;;;;;18.88;100.00;101265.78;4945381;28;20886;-71
2021/06/27 04:33:12;;;;;;;17.45;12.48;;;;;;;18.98;100.00;101264.19;4945938;28;20121;-72
2021/06/27 04:35:39;;;;;;;19.70;13.27;;;;;;;18.99;100.00;101271.19;4925494;29;20035;-71
2021/06/27 04:38:06;;;;;;;21.50;14.02;;;;;;;19.02;100.00;101270.41;4949735;28;20031;-71
2021/06/27 04:40:33;;;;;;;23.25;14.05;;;;;;;19.05;100.00;101269.59;4946059;28;20054;-71
2021/06/27 04:42:59;;;;;;;22.83;14.43;;;;;;;19.10;100.00;101265.69;4942336;28;20042;-71
2021/06/27 04:45:25;;;;;;;21.63;13.98;;;;;;;19.10;100.00;101255.53;4945217;29;20031;-71
2021/06/27 04:47:50;;;;;;;22.73;14.65;;;;;;;19.11;100.00;101259.81;4945583;28;20042;-72
2021/06/27 04:50:16;;;;;;;25.27;15.57;;;;;;;19.16;100.00;101264.88;4946190;28;20521;-71
2021/06/27 04:52:41;;;;;;;23.50;14.98;;;;;;;19.14;100.00;101275.44;4946585;28;20031;-71
2021/06/27 04:55:07;;;;;;;24.80;14.93;;;;;;;19.16;100.00;101269.56;4945728;28;20032;-71
2021/06/27 04:57:34;;;;;;;24.70;14.95;;;;;;;19.22;100.00;101266.00;4946948;28;20038;-71
2021/06/27 05:00:00;;;;;;;21.83;14.40;;;;;;;19.24;99.70;101276.53;4942795;28;20051;-71
2021/06/27 05:02:25;;;;;;;24.88;15.45;;;;;;;19.24;100.00;101279.28;4946807;28;20038;-71
2021/06/27 05:04:51;;;;;;;24.08;14.32;;;;;;;19.24;100.00;101268.34;4926497;28;20489;-71
2021/06/27 05:07:19;;;;;;;20.30;13.45;;;;;;;19.21;100.00;101272.66;4923650;28;20541;-71
2021/06/27 05:09:44;;;;;;;19.85;13.50;;;;;;;19.28;100.00;101277.31;4945626;28;20039;-71
2021/06/27 05:12:10;;;;;;;26.08;14.95;;;;;;;19.34;100.00;101278.44;4940607;28;20035;-71
2021/06/27 05:14:36;;;;;;;23.70;15.13;;;;;;;19.39;99.85;101270.63;4943423;28;20046;-71
2021/06/27 05:17:01;;;;;;;22.33;14.82;;;;;;;19.40;99.45;101266.72;4947272;28;20023;-71
2021/06/27 05:19:27;;;;;;;24.08;14.75;;;;;;;19.41;99.19;101267.50;4941367;29;20525;-70
2021/06/27 05:21:52;;;;;;;24.40;15.23;;;;;;;19.44;99.40;101261.22;4944389;28;20031;-70
2021/06/27 05:24:19;;;;;;;24.92;15.38;;;;;;;19.51;99.79;101266.66;4943921;28;20051;-70
2021/06/27 05:26:45;;;;;;;22.20;14.63;;;;;;;19.52;100.00;101260.78;4943154;28;20046;-70
2021/06/27 05:29:11;;;;;;;23.17;14.93;;;;;;;19.61;99.49;101266.59;4945427;28;20418;-70
2021/06/27 05:31:37;;;;;;;25.23;15.68;;;;;;;19.68;98.87;101263.03;4943348;28;20027;-70
2021/06/27 05:34:03;;;;;;;21.88;14.65;;;;;;;19.69;98.67;101259.09;4944097;28;20053;-70
2021/06/27 05:36:29;;;;;;;26.50;15.38;;;;;;;19.76;98.27;101267.28;4942883;28;20598;-70
2021/06/27 05:38:55;;;;;;;25.17;15.85;;;;;;;19.83;96.00;101277.38;4945089;28;20122;-70
2021/06/27 05:41:21;;;;;;;22.83;14.95;;;;;;;19.76;96.34;101270.00;4945394;28;20115;-70
2021/06/27 05:43:46;;;;;;;24.88;14.68;;;;;;;19.73;97.34;101285.25;4942541;28;20119;-70
2021/06/27 05:46:12;;;;;;;21.70;14.40;;;;;;;19.76;98.36;101273.50;4945284;28;20517;-70
2021/06/27 05:48:38;;;;;;;21.90;14.95;;;;;;;19.76;97.92;101278.97;4944066;28;20024;-70
2021/06/27 05:51:04;;;;;;;21.55;13.25;;;;;;;19.78;98.51;101281.31;4943060;28;20062;-70
2021/06/27 05:53:29;;;;;;;20.67;14.18;;;;;;;19.80;99.39;101276.22;4929762;29;20046;-70
2021/06/27 05:56:10;;;;;;;22.08;14.25;;;;;;;19.87;99.44;101273.44;4930066;28;20027;-70
2021/06/27 05:58:42;;;;;;;20.38;14.57;;;;;;;19.96;98.01;101281.16;4946180;28;20019;-70
2021/06/27 06:01:10;;;;;;;21.10;14.30;;;;;;;20.10;96.53;101278.31;4947887;29;20047;-70
2021/06/27 06:03:37;;;;;;;22.35;14.68;;;;;;;20.22;97.10;101275.91;4944960;28;20539;-70
2021/06/27 06:06:04;;;;;;;20.65;14.23;;;;;;;20.43;96.03;101281.16;4945320;28;21258;-71
2021/06/27 06:08:30;;;;;;;21.92;14.50;;;;;;;20.74;94.02;101273.03;4947023;28;20027;-70
2021/06/27 06:10:55;;;;;;;23.33;15.60;;;;;;;20.88;92.38;101270.91;4947215;29;20050;-71
2021/06/27 06:13:21;;;;;;;25.83;15.68;;;;;;;20.93;92.47;101281.41;4947423;28;20034;-70
2021/06/27 06:15:47;;;;;;;26.80;15.35;;;;;;;20.98;91.32;101278.19;4945897;28;20054;-71
2021/06/27 06:18:12;;;;;;;20.73;13.68;;;;;;;21.05;91.46;101275.41;4947691;29;20035;-71
2021/06/27 06:20:38;;;;;;;21.17;13.20;;;;;;;21.16;89.80;101276.06;4922462;29;20082;-71
2021/06/27 06:23:03;;;;;;;18.02;12.52;;;;;;;21.17;89.71;101274.09;4925135;28;20035;-70
2021/06/27 06:25:29;;;;;;;17.42;12.77;;;;;;;21.27;88.85;101276.69;4929353;29;20027;-70
2021/06/27 06:27:54;;;;;;;21.35;12.13;;;;;;;21.27;88.40;101273.94;4946981;28;20055;-71
2021/06/27 06:30:20;;;;;;;20.17;13.25;;;;;;;21.37;86.78;101275.75;4943730;28;20041;-71
2021/06/27 06:32:46;;;;;;;18.75;12.68;;;;;;;21.42;86.59;101274.53;4947768;28;20035;-71
2021/06/27 06:35:12;;;;;;;18.10;11.57;;;;;;;21.60;86.17;101266.84;4946817;28;20121;-71
2021/06/27 06:37:37;;;;;;;20.58;12.77;;;;;;;21.67;85.35;101276.91;4948302;28;20134;-71
2021/06/27 06:40:04;;;;;;;19.85;12.50;;;;;;;21.83;82.44;101277.88;4945660;28;20114;-71
2021/06/27 06:42:30;;;;;;;17.48;12.48;;;;;;;22.14;82.17;101281.28;4947525;28;20043;-71
2021/06/27 06:44:56;;;;;;;21.58;12.20;;;;;;;22.49;80.69;101286.16;4943880;28;20042;-71
2021/06/27 06:47:22;;;;;;;16.45;10.75;;;;;;;22.82;81.98;101284.38;4949449;28;20027;-71
2021/06/27 06:49:47;;;;;;;17.92;10.68;;;;;;;23.21;79.17;101279.59;4943048;28;20533;-71
2021/06/27 06:52:13;;;;;;;23.05;10.70;;;;;;;23.55;74.13;101279.28;4928455;29;20481;-71
2021/06/27 06:54:39;;;;;;;14.77;10.43;;;;;;;23.51;73.78;101272.31;4945215;28;20031;-73
2021/06/27 06:57:04;;;;;;;14.25;10.00;;;;;;;23.57;74.11;101276.88;4947331;28;20035;-74
2021/06/27 06:59:30;;;;;;;15.05;10.75;;;;;;;23.75;72.78;101281.97;4928571;29;20941;-74
2021/06/27 07:01:55;;;;;;;29.42;10.40;;;;;;;23.84;74.09;101279.38;4946598;28;20103;-75
2021/06/27 07:04:21;;;;;;;18.05;10.85;;;;;;;23.84;71.31;101280.16;4945407;28;20138;-73
2021/06/27 07:06:46;;;;;;;16.42;9.70;;;;;;;24.03;72.96;101275.78;4945725;28;20073;-74
2021/06/27 07:09:12;;;;;;;24.95;10.25;;;;;;;24.16;73.15;101271.13;4946731;28;20035;-74
2021/06/27 07:11:37;;;;;;;15.55;9.45;;;;;;;24.26;73.88;101280.31;4952394;28;20038;-75
2021/06/27 07:14:03;;;;;;;13.07;8.68;;;;;;;24.18;74.90;101274.22;4946372;28;20035;-74
2021/06/27 07:16:29;;;;;;;15.68;8.23;;;;;;;24.35;71.73;101275.75;4944503;28;20429;-75
2021/06/27 07:18:54;;;;;;;11.55;7.55;;;;;;;24.52;69.30;101271.75;4927120;29;20497;-75
2021/06/27 07:21:19;;;;;;;17.35;7.28;;;;;;;24.53;69.26;101270.53;4930914;28;20045;-75
2021/06/27 07:23:46;;;;;;;10.57;7.88;;;;;;;24.59;67.87;101271.56;4926184;29;20512;-74
2021/06/27 07:26:11;;;;;;;10.20;7.13;;;;;;;24.54;65.94;101263.84;4944869;28;20035;-75
2021/06/27 07:28:37;;;;;;;9.57;7.13;;;;;;;24.60;68.07;101267.59;4948282;28;20118;-74
2021/06/27 07:31:03;;;;;;;14.02;7.10;;;;;;;24.65;69.11;101271.81;4945926;28;20548;-74
2021/06/27 07:33:29;;;;;;;9.43;6.35;;;;;;;24.68;70.04;101260.66;4927916;28;20034;-74
2021/06/27 07:35:55;;;;;;;11.05;7.05;;;;;;;24.81;69.88;101271.78;4947106;28;20057;-74
2021/06/27 07:38:21;;;;;;;10.50;6.35;;;;;;;24.82;68.79;101276.06;4929155;29;20034;-74
2021/06/27 07:40:47;;;;;;;9.02;6.38;;;;;;;24.81;68.55;101264.28;4943435;28;20199;-75
2021/06/27 07:43:13;;;;;;;9.50;7.38;;;;;;;24.88;63.03;101263.28;4945210;28;20035;-74
2021/06/27 07:45:40;;;;;;;9.13;6.78;;;;;;;24.95;65.83;101268.63;4942756;28;20732;-74
2021/06/27 07:48:06;;;;;;;20.52;8.23;;;;;;;24.71;75.00;101270.84;4947355;28;20035;-72
2021/06/27 07:50:32;;;;;;;10.18;7.13;;;;;;;25.23;72.12;101269.75;4946433;28;20071;-72
2021/06/27 07:52:57;;;;;;;9.60;7.20;;;;;;;25.10;71.17;101275.25;4932295;29;20529;-73
2021/06/27 07:55:23;;;;;;;12.57;7.38;;;;;;;25.30;71.15;101266.78;4926368;28;20086;-72
2021/06/27 07:57:49;;;;;;;10.60;6.90;;;;;;;25.50;70.13;101265.38;4945751;28;20106;-73
2021/06/27 08:00:15;;;;;;;9.63;7.20;;;;;;;25.47;68.36;101259.97;4921569;29;20617;-73
2021/06/27 08:02:41;;;;;;;9.45;7.32;;;;;;;25.13;61.84;101259.81;4947671;28;20516;-73
2021/06/27 08:05:07;;;;;;;7.50;6.13;;;;;;;25.64;66.60;101259.44;4942418;28;20031;-73
2021/06/27 08:07:33;;;;;;;8.38;6.50;;;;;;;26.12;65.81;101257.47;4947111;28;20027;-72
2021/06/27 08:09:59;;;;;;;7.78;6.30;;;;;;;24.33;65.37;101261.63;4955731;28;20046;-72
2021/06/27 08:12:24;;;;;;;8.73;6.57;;;;;;;24.73;63.03;101267.66;4949732;28;20041;-72
2021/06/27 08:14:50;;;;;;;8.20;5.80;;;;;;;25.63;66.74;101260.63;4946866;28;20039;-73
2021/06/27 08:17:15;;;;;;;7.72;6.25;;;;;;;26.39;67.66;101254.94;4936780;29;20043;-73
2021/06/27 08:19:41;;;;;;;7.38;6.25;;;;;;;27.10;63.42;101256.69;4928355;29;20058;-73
2021/06/27 08:22:06;;;;;;;9.07;5.88;;;;;;;27.63;62.47;101251.84;4948343;28;20769;-73
2021/06/27 08:24:32;;;;;;;7.80;6.55;;;;;;;27.87;61.60;101258.38;4943089;28;20378;-74
2021/06/27 08:26:57;;;;;;;9.05;7.47;;;;;;;28.49;57.14;101259.66;4945371;28;20039;-73
2021/06/27 08:29:23;;;;;;;15.30;7.82;;;;;;;28.53;56.52;101257.50;4941085;28;20062;-73
2021/06/27 08:31:49;;;;;;;10.48;7.15;;;;;;;28.71;54.96;101258.75;4944127;28;20039;-73
2021/06/27 08:34:14;;;;;;;8.90;7.18;;;;;;;28.66;54.68;101265.72;4930236;28;20027;-73
2021/06/27 08:36:40;;;;;;;8.93;6.40;;;;;;;29.44;56.75;101249.00;4945149;28;20454;-72
2021/06/27 08:39:06;;;;;;;9.15;7.18;;;;;;;29.85;54.70;101253.72;4927177;28;20070;-73
2021/06/27 08:41:32;;;;;;;9.50;7.07;;;;;;;29.61;53.02;101246.59;4947467;28;20042;-73
2021/06/27 08:43:57;;;;;;;8.13;7.13;;;;;;;30.33;52.74;101242.59;4945835;28;20030;-72
2021/06/27 08:46:24;;;;;;;10.63;9.10;;;;;;;30.62;51.38;101245.41;4945521;28;20031;-73
2021/06/27 08:48:51;;;;;;;10.65;8.38;;;;;;;30.41;51.78;101244.50;4940903;28;20430;-72
2021/06/27 08:51:16;;;;;;;12.68;8.50;;;;;;;30.68;50.02;101243.50;4928005;29;20671;-73
2021/06/27 08:53:43;;;;;;;10.07;7.50;;;;;;;31.20;48.34;101237.06;4949559;28;20041;-73
2021/06/27 08:56:10;;;;;;;11.55;6.90;;;;;;;32.18;48.53;101241.75;4944457;28;20046;-72
2021/06/27 08:58:37;;;;;;;11.48;8.25;;;;;;;32.87;44.68;101235.09;4931093;28;20476;-72
2021/06/27 09:01:06;;;;;;;15.68;10.15;;;;;;;31.93;45.19;101232.06;4946195;28;20039;-75
2021/06/27 09:03:34;;;;;;;12.52;9.15;;;;;;;32.31;46.63;101230.22;4950079;28;20031;-84
2021/06/27 09:06:00;;;;;;;10.32;7.97;;;;;;;33.16;46.76;101226.47;4944437;28;20042;-73
2021/06/27 09:08:26;;;;;;;12.95;9.48;;;;;;;33.16;45.04;101226.47;4945523;28;20032;-72
2021/06/27 09:10:53;;;;;;;15.90;8.50;;;;;;;32.08;47.74;101231.22;4943033;28;20109;-72
2021/06/27 09:13:37;;;;;;;13.93;10.43;;;;;;;32.17;48.03;101222.72;4945850;28;20038;-73
2021/06/27 09:16:19;;;;;;;12.77;9.70;;;;;;;33.01;45.96;101213.91;4946496;28;20039;-72
2021/06/27 09:18:45;;;;;;;12.82;9.27;;;;;;;33.20;44.10;101215.81;4945171;28;20080;-73
2021/06/27 09:21:10;;;;;;;15.93;9.48;;;;;;;34.26;43.62;101217.88;4925462;28;20122;-75
2021/06/27 09:23:39;;;;;;;11.70;8.90;;;;;;;33.70;44.42;101219.69;4944258;28;20035;-77
2021/06/27 09:26:06;;;;;;;10.15;7.97;;;;;;;34.21;43.60;101213.03;4949502;28;20114;-78
2021/06/27 09:28:50;;;;;;;16.65;9.25;;;;;;;34.31;42.39;101214.34;4947465;28;20031;-82
2021/06/27 09:31:40;;;;;;;11.90;8.57;;;;;;;33.97;44.49;101220.31;4949353;28;20070;-76
2021/06/27 09:34:12;;;;;;;12.93;9.48;;;;;;;32.60;45.46;101216.06;4947602;29;20094;-77
2021/06/27 09:36:45;;;;;;;11.95;9.02;;;;;;;30.64;46.77;101215.09;4949378;28;20066;-79
2021/06/27 09:39:15;;;;;;;14.20;10.43;;;;;;;29.68;49.12;101210.13;4948296;28;20032;-78
2021/06/27 09:41:53;;;;;;;12.07;10.02;;;;;;;29.19;53.60;101199.47;4936350;28;20043;-76
2021/06/27 09:44:20;;;;;;;12.00;8.93;;;;;;;30.41;51.07;101205.56;4947000;29;20519;-75
2021/06/27 09:46:51;;;;;;;12.38;8.70;;;;;;;31.87;47.14;101206.13;4948928;28;20118;-72
2021/06/27 09:49:24;;;;;;;11.20;9.00;;;;;;;33.74;43.57;101202.66;4926901;28;20035;-77
2021/06/27 09:51:51;;;;;;;13.02;8.90;;;;;;;34.22;42.37;101209.00;4921897;28;20046;-78
2021/06/27 09:54:20;;;;;;;9.77;8.30;;;;;;;33.40;45.19;101204.53;4927990;29;20027;-73
2021/06/27 09:56:46;;;;;;;16.15;8.50;;;;;;;32.05;47.26;101213.44;4933932;29;20571;-73
2021/06/27 09:59:20;;;;;;;10.15;8.77;;;;;;;31.62;47.33;101217.19;4948214;28;20044;-79
2021/06/27 10:01:47;;;;;;;10.88;9.30;;;;;;;30.51;49.40;101209.06;4949623;28;20409;-81
2021/06/27 10:04:25;;;;;;;14.88;9.13;;;;;;;30.08;51.13;101214.03;4948188;28;20047;-73
2021/06/27 10:06:53;;;;;;;12.10;9.93;;;;;;;29.77;53.70;101208.09;4930577;29;20122;-73
2021/06/27 10:09:21;;;;;;;12.07;8.40;;;;;;;29.48;54.68;101212.72;4945448;28;20054;-77
2021/06/27 10:11:58;;;;;;;13.80;9.60;;;;;;;29.25;55.73;101208.66;4947210;28;20024;-77
2021/06/27 10:14:29;;;;;;;12.45;9.25;;;;;;;29.25;56.83;101208.66;4946876;28;20031;-73
2021/06/27 10:16:56;;;;;;;13.68;9.15;;;;;;;30.66;52.64;101218.94;4939463;29;20027;-73
2021/06/27 10:19:21;;;;;;;14.70;8.18;;;;;;;32.25;49.20;101212.66;4948854;28;20027;-73
2021/06/27 10:21:47;;;;;;;13.18;8.88;;;;;;;33.21;45.91;101208.22;4922384;29;20027;-73
2021/06/27 10:24:13;;;;;;;17.40;7.50;;;;;;;34.03;43.76;101207.91;4930054;29;20568;-73
2021/06/27 10:26:39;;;;;;;9.13;6.90;;;;;;;34.81;42.14;101211.59;4947640;28;20047;-73
2021/06/27 10:29:05;;;;;;;10.48;7.72;;;;;;;34.02;41.64;101205.59;4930756;28;20035;-73
2021/06/27 10:31:30;;;;;;;9.98;7.63;;;;;;;32.91;44.44;101204.91;4950882;28;20042;-73
2021/06/27 10:33:56;;;;;;;10.95;7.78;;;;;;;31.81;47.91;101207.28;4952019;28;20068;-74
2021/06/27 10:36:31;;;;;;;9.30;7.38;;;;;;;30.79;47.23;101202.72;4930361;29;20027;-74
2021/06/27 10:39:00;;;;;;;8.60;7.07;;;;;;;30.52;49.25;101197.44;4944823;28;20691;-74
2021/06/27 10:42:01;;;;;;;8.73;7.18;;;;;;;30.40;47.17;101192.16;4948893;28;20044;-73
2021/06/27 10:44:50;;;;;;;8.88;6.93;;;;;;;30.44;50.43;101187.19;4920549;29;20965;-74
2021/06/27 10:47:31;;;;;;;6.55;5.88;;;;;;;29.97;53.34;101188.03;4948047;28;20383;-74
2021/06/27 10:49:57;;;;;;;10.80;7.85;;;;;;;30.02;52.54;101193.69;4948170;28;20042;-74
2021/06/27 10:52:23;;;;;;;20.55;8.75;;;;;;;31.30;49.50;101179.97;4933336;28;20432;-74
2021/06/27 10:55:15;;;;;;;10.48;6.93;;;;;;;31.67;48.82;101185.81;4943820;28;20043;-74
2021/06/27 10:57:52;;;;;;;9.35;7.07;;;;;;;31.42;45.71;101181.72;4945622;28;20394;-73
2021/06/27 11:00:17;;;;;;;9.38;7.00;;;;;;;30.82;47.23;101181.50;4942548;28;20058;-73
2021/06/27 11:02:43;;;;;;;7.72;6.57;;;;;;;30.73;48.86;101179.59;4933385;29;20019;-73
2021/06/27 11:05:32;;;;;;;7.25;6.38;;;;;;;30.63;51.25;101171.81;4945563;28;20043;-73
2021/06/27 11:07:59;;;;;;;9.13;6.60;;;;;;;30.02;50.19;101170.72;4924255;28;20046;-73
2021/06/27 11:10:24;;;;;;;8.10;6.47;;;;;;;31.43;48.69;101176.91;4947528;28;20522;-74
2021/06/27 11:13:03;;;;;;;7.30;5.45;;;;;;;32.50;45.25;101173.59;4947579;28;20114;-73